• Join FlightAware (Why Join?)
  • Login
  • US Flag 
10:55PM EDT


 

Airport Tracker/Info


-or-


 

Live Flight TrackerFlight Track Log ✈ LXJ342 ✈ 27-Jun-2013 ✈ KLAS - KSAT

Flight Track Log - Related Links

Times and Time Zones

All times are in EDT time to prevent confusion due to time zone crossing. See the LXJ342 flight status page for this flight to view local times or setup timezone preferences in your user account.

Time Position Orientation Groundspeed Altitude Reporting Facility
EDT Latitude Longitude Course Direction KTS MPH feet Rate Location/Type
01:42PM 36.0611 -115.1786 219° Southwest 191 220 3,400  Level Los Angeles Center
01:44PM 36.0003 -115.2386 219° Southwest 264 304 6,800 2,820 Climbing Los Angeles Center
01:45PM 35.9381 -115.2881 213° Southwest 279 321 9,700 2,820 Climbing Los Angeles Center
01:46PM 35.8908 -115.1861 120° Southeast 314 361 12,700 2,220 Climbing Los Angeles Center
01:47PM 35.8836 -115.0661 94° East 344 396 14,700 1,920 Climbing Los Angeles Center
01:48PM 35.8753 -114.9344 94° East 373 429 16,700 1,860 Climbing Los Angeles Center
01:49PM 35.8681 -114.8008 94° East 388 447 18,600 1,860 Climbing Los Angeles Center
01:50PM 35.8592 -114.6644 95° East 398 458 20,600 1,920 Climbing Los Angeles Center
01:51PM 35.8297 -114.5350 106° East 403 464 22,600 1,920 Climbing Los Angeles Center
01:52PM 35.7514 -114.3975 125° Southeast 407 468 24,600 1,800 Climbing Los Angeles Center
01:53PM 35.6869 -114.2797 124° Southeast 413 475 26,400 1,800 Climbing Los Angeles Center
01:54PM 35.6228 -114.1619 124° Southeast 413 475 28,400 1,800 Climbing Los Angeles Center
01:55PM 35.5617 -114.0461 123° Southeast 411 473 30,200 1,320 Climbing Los Angeles Center
01:56PM 35.4872 -113.9064 123° Southeast 408 470 31,500 1,200 Climbing Los Angeles Center
01:57PM 35.4094 -113.7619 123° Southeast 422 486 33,000 1,440 Climbing Los Angeles Center
01:58PM 35.3456 -113.6456 124° Southeast 419 482 34,500 960 Climbing Los Angeles Center
02:00PM 35.2814 -113.5281 124° Southeast 418 481 35,000 240 Climbing Los Angeles Center
02:01PM 35.2142 -113.4039 124° Southeast 438 504 35,000  Level Los Angeles Center
02:02PM 35.1442 -113.2786 124° Southeast 452 520 35,000 120 Level Los Angeles Center
02:03PM 35.0603 -113.1258 124° Southeast 459 528 35,300 960 Climbing Los Angeles Center
02:03PM 35.0075 -113.0272 123° Southeast 449 517 36,800 900 Climbing Albuquerque Center
02:04PM 34.9411 -112.9081 124° Southeast 435 501 37,000 60 Climbing Albuquerque Center
02:05PM 34.8722 -112.7850 124° Southeast 440 506 37,000  Level Albuquerque Center
02:06PM 34.8139 -112.6492 118° Southeast 452 520 37,000  Level Albuquerque Center
02:08PM 34.7561 -112.5128 117° Southeast 457 526 37,000  Level Albuquerque Center
02:09PM 34.6856 -112.3500 118° Southeast 458 527 37,000  Level Albuquerque Center
02:10PM 34.6306 -112.2239 118° Southeast 458 527 37,000  Level Albuquerque Center
02:11PM 34.5711 -112.0872 118° Southeast 458 527 37,000  Level Albuquerque Center
02:12PM 34.5114 -111.9500 118° Southeast 459 528 37,000  Level Albuquerque Center
02:13PM 34.4394 -111.7861 118° Southeast 457 526 37,000  Level Albuquerque Center
02:14PM 34.3792 -111.6494 118° Southeast 457 526 37,000 360 Level Albuquerque Center
02:15PM 34.3186 -111.5136 118° Southeast 456 525 37,800 960 Climbing Albuquerque Center
02:16PM 34.2614 -111.3842 118° Southeast 447 514 39,000 540 Climbing Albuquerque Center
02:17PM 34.2042 -111.2564 118° Southeast 436 502 39,000  Level Albuquerque Center
02:18PM 34.1450 -111.1244 118° Southeast 442 509 39,000  Level Albuquerque Center
02:19PM 34.0839 -110.9886 118° Southeast 454 522 39,000  Level Albuquerque Center
02:20PM 34.0239 -110.8528 118° Southeast 457 526 39,000  Level Albuquerque Center
02:21PM 33.9500 -110.6908 119° Southeast 459 528 39,000  Level Albuquerque Center
02:22PM 33.8881 -110.5550 119° Southeast 461 531 39,000  Level Albuquerque Center
02:23PM 33.8264 -110.4200 119° Southeast 462 532 39,000  Level Albuquerque Center
02:24PM 33.7636 -110.2850 119° Southeast 462 532 39,000  Level Albuquerque Center
02:25PM 33.7017 -110.1492 119° Southeast 463 533 39,000  Level Albuquerque Center
02:26PM 33.6372 -110.0103 119° Southeast 464 534 39,000 180 Level Albuquerque Center
02:27PM 33.5739 -109.8753 119° Southeast 467 537 39,400 660 Climbing Albuquerque Center
02:28PM 33.5147 -109.7456 119° Southeast 452 520 40,400 720 Climbing Albuquerque Center
02:29PM 33.4394 -109.5986 122° Southeast 436 502 41,000 240 Climbing Albuquerque Center
02:30PM 33.3783 -109.4700 120° Southeast 442 509 41,000  Level Albuquerque Center
02:31PM 33.3183 -109.3394 119° Southeast 447 514 41,000  Level Albuquerque Center
02:32PM 33.2556 -109.2067 119° Southeast 456 525 41,000  Level Albuquerque Center
02:33PM 33.1975 -109.0722 117° Southeast 456 525 41,000  Level Albuquerque Center
02:34PM 33.1344 -108.9403 120° Southeast 460 529 41,000  Level Albuquerque Center
02:35PM 33.0703 -108.8083 120° Southeast 461 531 41,000  Level Albuquerque Center
02:36PM 32.9953 -108.6483 119° Southeast 460 529 41,000  Level Albuquerque Center
02:37PM 32.9281 -108.5200 122° Southeast 461 531 41,000  Level Albuquerque Center
02:38PM 32.8664 -108.3883 119° Southeast 459 528 41,000  Level Albuquerque Center
02:39PM 32.8022 -108.2572 120° Southeast 459 528 41,000  Level Albuquerque Center
02:40PM 32.7378 -108.1253 120° Southeast 461 531 41,000  Level Albuquerque Center
02:41PM 32.6739 -107.9969 121° Southeast 457 526 41,000  Level Albuquerque Center
02:43PM 32.6103 -107.8669 120° Southeast 457 526 41,000  Level Albuquerque Center
02:44PM 32.5339 -107.7122 120° Southeast 456 525 41,000  Level Albuquerque Center
02:45PM 32.4706 -107.5850 121° Southeast 453 521 41,000  Level Albuquerque Center
02:46PM 32.4031 -107.4486 120° Southeast 456 525 41,000  Level Albuquerque Center
02:47PM 32.3394 -107.3183 120° Southeast 458 527 41,000  Level Albuquerque Center
02:48PM 32.2686 -107.1792 121° Southeast 459 528 41,000  Level Albuquerque Center
02:49PM 32.2072 -107.0478 119° Southeast 459 528 41,000  Level Albuquerque Center
02:50PM 32.1397 -106.9153 121° Southeast 465 535 41,000  Level Albuquerque Center
02:51PM 32.0750 -106.7872 121° Southeast 460 529 41,000  Level Albuquerque Center
02:52PM 32.0092 -106.6592 121° Southeast 460 529 41,000  Level Albuquerque Center
02:53PM 31.9442 -106.5317 121° Southeast 457 526 41,000  Level Albuquerque Center
02:54PM 31.8692 -106.3853 121° Southeast 467 537 41,000  Level Albuquerque Center
02:55PM 31.8081 -106.2542 119° Southeast 463 533 41,000  Level Albuquerque Center
02:56PM 31.7744 -106.1111 105° East 446 513 41,000  Level Albuquerque Center
02:57PM 31.7389 -105.9697 106° East 450 518 41,000  Level Albuquerque Center
02:58PM 31.7028 -105.8283 107° East 451 519 41,000 -60 Level Albuquerque Center
02:59PM 31.6603 -105.6578 106° East 454 522 40,900  Descending Albuquerque Center
03:00PM 31.6244 -105.5150 106° East 456 525 41,000  Climbing Albuquerque Center
03:01PM 31.5894 -105.3728 106° East 454 522 41,000  Level Albuquerque Center
03:02PM 31.5522 -105.2314 107° East 453 521 41,000  Level Albuquerque Center
03:03PM 31.5172 -105.0889 106° East 453 521 41,000  Level Albuquerque Center
03:04PM 31.4800 -104.9489 107° East 450 518 41,000  Level Albuquerque Center
03:05PM 31.4444 -104.8083 106° East 449 517 41,000  Level Albuquerque Center
03:06PM 31.4072 -104.6675 107° East 449 517 41,000  Level Albuquerque Center
03:07PM 31.3703 -104.5267 107° East 451 519 41,000  Level Albuquerque Center
03:08PM 31.3264 -104.3606 107° East 447 514 41,000  Level Albuquerque Center
03:09PM 31.2897 -104.2222 107° East 445 512 41,000  Level Albuquerque Center
03:10PM 31.2522 -104.0850 108° East 444 511 41,000  Level Albuquerque Center
03:11PM 31.2156 -103.9472 107° East 444 511 41,000  Level Albuquerque Center
03:12PM 31.1781 -103.8094 108° East 445 512 41,000  Level Albuquerque Center
03:13PM 31.1408 -103.6725 108° East 443 510 41,000  Level Albuquerque Center
03:14PM 31.1042 -103.5353 107° East 444 511 41,000  Level Albuquerque Center
03:15PM 31.0603 -103.3708 107° East 443 510 41,000  Level Albuquerque Center
03:16PM 31.0225 -103.2336 108° East 444 511 41,000  Level Albuquerque Center
03:18PM 30.9881 -103.1106 108° East 442 509 41,000  Level Albuquerque Center
03:19PM 30.9428 -102.9464 108° East 444 511 41,000  Level Albuquerque Center
03:20PM 30.9081 -102.8086 106° East 445 512 41,000  Level Albuquerque Center
03:21PM 30.8725 -102.6719 107° East 444 511 41,000  Level Albuquerque Center
03:22PM 30.8369 -102.5356 107° East 443 510 41,000  Level Albuquerque Center
03:23PM 30.8017 -102.3994 107° East 443 510 41,000  Level Albuquerque Center
03:24PM 30.7667 -102.2625 107° East 443 510 41,000  Level Albuquerque Center
03:25PM 30.7278 -102.1161 107° East 443 510 41,000  Level Houston Center
03:26PM 30.6928 -101.9800 107° East 442 509 41,000  Level Houston Center
03:27PM 30.6558 -101.8442 108° East 442 509 41,000  Level Houston Center
03:28PM 30.6125 -101.6819 107° East 440 506 41,000  Level Houston Center
03:29PM 30.5764 -101.5472 107° East 439 505 41,000  Level Houston Center
03:30PM 30.5389 -101.4122 108° East 440 506 41,000  Level Houston Center
03:31PM 30.5033 -101.2769 107° East 439 505 41,000  Level Houston Center
03:32PM 30.4664 -101.1422 108° East 439 505 41,000 -300 Level Houston Center
03:33PM 30.4219 -100.9800 108° East 441 507 40,500 -1,200 Descending Houston Center
03:34PM 30.3842 -100.8403 107° East 452 520 38,600 -1,860 Descending Houston Center
03:35PM 30.3472 -100.7081 108° East 435 501 36,700 -1,860 Descending Houston Center
03:36PM 30.3119 -100.5778 107° East 425 489 34,800 -1,860 Descending Houston Center
03:37PM 30.2750 -100.4433 108° East 433 498 32,900 -1,920 Descending Houston Center
03:38PM 30.2381 -100.3103 108° East 431 496 30,900 -1,920 Descending Houston Center
03:39PM 30.2019 -100.1761 107° East 429 494 29,000 -1,860 Descending Houston Center
03:40PM 30.1628 -100.0425 109° East 430 495 27,100 -2,220 Descending Houston Center
03:41PM 30.1178 -99.8850 108° East 427 491 24,500 -2,220 Descending Houston Center
03:42PM 30.0808 -99.7575 108° East 419 482 22,500 -1,920 Descending Houston Center
03:43PM 30.0447 -99.6331 109° East 411 473 20,500 -2,040 Descending Houston Center
03:44PM 30.0083 -99.5081 109° East 412 474 18,400 -1,980 Descending Houston Center
03:45PM 29.9731 -99.3836 108° East 407 468 16,500 -2,040 Descending Houston Center
03:46PM 29.9383 -99.2669 109° East 397 457 14,600 -2,100 Descending Houston Center
03:47PM 29.9153 -99.1947 110° East 388 447 13,500 -1,920 Descending Houston Center
03:48PM 29.8914 -99.1275 112° Southeast 381 438 12,300 -1,800 Descending Houston Center
03:49PM 29.8489 -99.0219 115° Southeast 358 412 10,500 -1,440 Descending Houston Center
03:50PM 29.8025 -98.9344 121° Southeast 288 331 9,300 -1,440 Descending Houston Center
03:51PM 29.7633 -98.8606 121° Southeast 273 314 7,500 -1,980 Descending Houston Center
03:52PM 29.7206 -98.7794 121° Southeast 274 315 5,300 -1,740 Descending Houston Center
03:53PM 29.6828 -98.7058 121° Southeast 269 310 4,000 -1,140 Descending Houston Center
03:54PM 29.6419 -98.6283 121° Southeast 264 304 3,000 -660 Descending Houston Center
03:55PM 29.6083 -98.5706 124° Southeast 224 258 2,700 -540 Descending Houston Center
03:56PM 29.5806 -98.5339 131° Southeast 149 171 2,000 -720 Descending Houston Center
03:57PM 29.5556 -98.5003 131° Southeast 140 161 1,300 -540 Descending Houston Center
03:58PM 29.5339 -98.4717 131° Southeast 140 161 900 -420 Descending Houston Center
04:00PM 29.5333 -98.4667 120° Southeast  Level FlightAware Approximate
04:07PM 29.5340 -98.4691 120° Southeast  Level Estimated